createdAt,value
2023-12-11T00:03:20.063Z,0.70
2023-12-11T00:06:44.203Z,0.97
2023-12-11T00:10:09.797Z,0.73
2023-12-11T00:13:36.623Z,0.90
2023-12-11T00:17:00.788Z,0.90
2023-12-11T00:20:25.226Z,0.80
2023-12-11T00:23:50.178Z,0.80
2023-12-11T00:27:14.101Z,0.80
2023-12-11T00:30:39.536Z,0.97
2023-12-11T00:34:04.307Z,0.80
2023-12-11T00:37:29.367Z,0.70
2023-12-11T00:40:54.255Z,0.87
2023-12-11T00:44:18.258Z,0.70
2023-12-11T00:47:43.819Z,0.60
2023-12-11T00:51:08.016Z,0.70
2023-12-11T00:54:32.751Z,0.80
2023-12-11T00:57:57.395Z,0.70
2023-12-11T01:01:21.552Z,0.60
2023-12-11T01:04:47.361Z,0.60
2023-12-11T01:08:12.916Z,0.60
2023-12-11T01:11:36.684Z,0.60
2023-12-11T01:15:00.746Z,0.67
2023-12-11T01:18:27.247Z,0.70
2023-12-11T01:21:53.012Z,0.70
2023-12-11T01:25:17.149Z,0.60
2023-12-11T01:28:41.241Z,1.00
2023-12-11T01:32:06.116Z,0.60
2023-12-11T01:35:30.345Z,0.70
2023-12-11T01:38:56.403Z,0.70
2023-12-11T01:42:20.481Z,0.70
2023-12-11T01:45:45.016Z,0.60
2023-12-11T01:49:09.833Z,0.70
2023-12-11T01:52:34.166Z,0.60
2023-12-11T01:56:00.528Z,0.60
2023-12-11T01:59:24.971Z,0.70
2023-12-11T02:02:49.177Z,0.70
2023-12-11T02:06:14.076Z,0.60
2023-12-11T02:09:39.447Z,0.50
2023-12-11T02:13:05.276Z,0.53
2023-12-11T02:16:29.507Z,0.70
2023-12-11T02:19:53.821Z,0.60
2023-12-11T02:23:24.393Z,0.60
2023-12-11T02:26:50.382Z,0.70
2023-12-11T02:30:14.297Z,0.60
2023-12-11T02:33:55.724Z,0.60
2023-12-11T02:37:20.096Z,0.60
2023-12-11T02:40:44.160Z,0.60
2023-12-11T02:44:09.310Z,0.60
2023-12-11T02:47:33.915Z,0.60
2023-12-11T02:50:58.411Z,0.60
2023-12-11T02:54:22.458Z,0.60
2023-12-11T02:57:46.469Z,0.50
2023-12-11T03:01:12.708Z,0.50
2023-12-11T03:04:36.863Z,0.50
2023-12-11T03:08:04.007Z,0.50
2023-12-11T03:11:28.046Z,0.50
2023-12-11T03:14:52.136Z,0.50
2023-12-11T03:18:17.767Z,0.60
2023-12-11T03:21:41.898Z,0.50
2023-12-11T03:25:06.453Z,0.50
2023-12-11T03:28:30.570Z,0.60
2023-12-11T03:31:54.565Z,0.57
2023-12-11T03:35:19.877Z,0.60
2023-12-11T03:38:44.382Z,0.60
2023-12-11T03:42:08.471Z,0.60
2023-12-11T03:45:32.125Z,0.60
2023-12-11T03:48:55.952Z,0.50
2023-12-11T03:52:21.691Z,0.50
2023-12-11T03:55:45.679Z,0.70
2023-12-11T03:59:10.022Z,0.60
2023-12-11T04:02:34.205Z,0.60
2023-12-11T04:05:58.504Z,0.60
2023-12-11T04:09:24.154Z,0.77
2023-12-11T04:12:48.313Z,0.60
2023-12-11T04:16:13.301Z,0.60
2023-12-11T04:19:37.349Z,0.63
2023-12-11T04:23:01.397Z,0.60
2023-12-11T04:26:27.308Z,0.60
2023-12-11T04:29:51.435Z,0.70
2023-12-11T04:33:16.223Z,0.60
2023-12-11T04:36:43.520Z,0.60
2023-12-11T04:40:09.273Z,0.60
2023-12-11T04:43:35.424Z,0.70
2023-12-11T04:46:59.575Z,0.63
2023-12-11T04:50:23.979Z,0.53
2023-12-11T04:53:48.498Z,0.80
2023-12-11T04:57:12.249Z,0.70
2023-12-11T05:00:37.886Z,0.63
2023-12-11T05:04:02.068Z,0.57
2023-12-11T05:07:26.305Z,0.50
2023-12-11T05:10:50.504Z,0.60
2023-12-11T05:14:14.490Z,0.60
2023-12-11T05:17:40.361Z,0.60
2023-12-11T05:21:09.123Z,0.63
2023-12-11T05:24:33.180Z,0.57
2023-12-11T05:27:57.571Z,0.60
2023-12-11T05:31:22.228Z,0.60
2023-12-11T05:34:47.609Z,0.60
2023-12-11T05:38:11.572Z,0.63
2023-12-11T05:41:35.623Z,0.60
2023-12-11T05:44:59.635Z,0.60
2023-12-11T05:48:23.857Z,0.67
2023-12-11T05:51:49.001Z,0.60
2023-12-11T05:55:13.125Z,0.80
2023-12-11T05:58:37.227Z,0.70
2023-12-11T06:02:01.265Z,0.60
2023-12-11T06:05:25.907Z,0.70
2023-12-11T06:08:51.554Z,0.80
2023-12-11T06:12:15.644Z,0.70
2023-12-11T06:15:39.647Z,0.70
2023-12-11T06:19:04.415Z,0.60
2023-12-11T06:22:29.287Z,0.60
2023-12-11T06:25:54.680Z,0.70
2023-12-11T06:29:18.894Z,0.83
2023-12-11T06:32:43.504Z,0.70
2023-12-11T06:36:08.013Z,0.60
2023-12-11T06:39:32.634Z,0.60
2023-12-11T06:42:58.450Z,0.70
2023-12-11T06:46:22.687Z,0.63
2023-12-11T06:49:47.953Z,0.70
2023-12-11T06:53:12.162Z,0.70
2023-12-11T06:56:36.329Z,0.73
2023-12-11T07:00:03.509Z,0.60
2023-12-11T07:03:29.402Z,0.63
2023-12-11T07:06:53.666Z,0.73
2023-12-11T07:10:18.793Z,0.60
2023-12-11T07:13:44.020Z,0.60
2023-12-11T07:17:10.323Z,0.70
2023-12-11T07:20:35.007Z,0.67
2023-12-11T07:23:59.668Z,0.63
2023-12-11T07:27:23.556Z,0.60
2023-12-11T07:30:47.776Z,0.60
2023-12-11T07:34:13.329Z,0.67
2023-12-11T07:37:37.731Z,0.70
2023-12-11T07:41:03.647Z,0.60
2023-12-11T07:44:30.267Z,0.60
2023-12-11T07:47:54.578Z,0.63
2023-12-11T07:51:24.683Z,0.70
2023-12-11T07:54:48.929Z,0.87
2023-12-11T07:58:14.958Z,0.60
2023-12-11T08:01:39.513Z,0.70
2023-12-11T08:05:03.748Z,0.70
2023-12-11T08:08:29.825Z,0.93
2023-12-11T08:11:54.898Z,0.80
2023-12-11T08:15:19.026Z,0.90
2023-12-11T08:18:44.713Z,0.90
2023-12-11T08:22:08.968Z,0.80
2023-12-11T08:25:34.578Z,1.10
2023-12-11T08:29:00.661Z,0.80
2023-12-11T08:32:27.137Z,0.73
2023-12-11T08:35:50.827Z,0.70
2023-12-11T08:39:14.990Z,0.80
2023-12-11T08:42:41.838Z,1.00
2023-12-11T08:46:06.819Z,1.00
2023-12-11T08:49:31.041Z,0.90
2023-12-11T08:52:55.287Z,0.90
2023-12-11T08:56:22.202Z,0.90
2023-12-11T08:59:48.397Z,0.70
2023-12-11T09:03:12.693Z,0.90
2023-12-11T09:06:36.786Z,0.90
2023-12-11T09:10:00.872Z,0.87
2023-12-11T09:13:29.169Z,0.80
2023-12-11T09:16:55.104Z,0.70
2023-12-11T09:20:21.046Z,0.90
2023-12-11T09:23:45.161Z,0.80
2023-12-11T09:27:09.818Z,0.70
2023-12-11T09:30:33.827Z,0.80
2023-12-11T09:33:59.459Z,0.70
2023-12-11T09:37:24.118Z,0.70
2023-12-11T09:40:48.398Z,0.80
2023-12-11T09:44:12.880Z,0.70
2023-12-11T09:47:42.986Z,0.80
2023-12-11T09:51:08.937Z,0.60
2023-12-11T09:54:32.962Z,0.90
2023-12-11T09:57:59.083Z,0.70
2023-12-11T10:01:23.395Z,0.90
2023-12-11T10:05:08.893Z,0.80
2023-12-11T10:08:42.690Z,0.70
2023-12-11T10:12:07.362Z,0.80
2023-12-11T10:15:32.893Z,0.67
2023-12-11T10:18:57.476Z,0.70
2023-12-11T10:22:29.288Z,0.70
2023-12-11T10:25:57.306Z,0.60
2023-12-11T10:29:23.002Z,0.60
2023-12-11T10:32:47.106Z,0.80
2023-12-11T10:36:13.339Z,0.70
2023-12-11T10:39:37.992Z,0.80
2023-12-11T10:43:03.419Z,0.83
2023-12-11T10:46:27.598Z,0.77
2023-12-11T10:49:52.031Z,0.70
2023-12-11T10:53:17.534Z,0.60
2023-12-11T10:56:45.137Z,0.80
2023-12-11T11:00:16.392Z,0.70
2023-12-11T11:03:41.435Z,0.90
2023-12-11T11:07:10.693Z,0.90
2023-12-11T11:10:39.206Z,0.73
2023-12-11T11:14:31.871Z,0.90
2023-12-11T11:18:01.233Z,0.87
2023-12-11T11:21:25.496Z,0.73
2023-12-11T11:24:49.475Z,0.70
2023-12-11T11:28:41.852Z,0.70
2023-12-11T11:32:06.523Z,0.90
2023-12-11T11:35:52.346Z,0.73
2023-12-11T11:39:16.802Z,0.80
2023-12-11T11:42:40.756Z,0.80
2023-12-11T11:46:05.406Z,1.10
2023-12-11T11:49:31.042Z,1.13
2023-12-11T11:53:01.348Z,1.13
2023-12-11T11:56:26.990Z,0.90
2023-12-11T11:59:52.058Z,1.20
2023-12-11T12:03:17.153Z,1.30
2023-12-11T12:06:41.056Z,1.20
2023-12-11T12:10:07.529Z,1.10
2023-12-11T12:13:37.922Z,1.40
2023-12-11T12:17:10.402Z,1.00
2023-12-11T12:20:34.092Z,1.10
2023-12-11T12:24:05.410Z,1.40
2023-12-11T12:27:34.285Z,1.70
2023-12-11T12:30:58.765Z,1.13
2023-12-11T12:34:24.265Z,1.13
2023-12-11T12:37:50.476Z,1.13
2023-12-11T12:41:14.608Z,1.50
2023-12-11T12:44:42.463Z,1.63
2023-12-11T12:48:07.661Z,1.20
2023-12-11T12:51:32.849Z,1.60
2023-12-11T12:54:57.621Z,1.50
2023-12-11T12:58:26.921Z,1.60
2023-12-11T13:01:53.732Z,1.93
2023-12-11T13:05:19.335Z,1.83
2023-12-11T13:08:44.355Z,1.70
2023-12-11T13:12:10.087Z,1.20
2023-12-11T13:15:34.251Z,1.43
2023-12-11T13:18:59.568Z,1.40
2023-12-11T13:22:23.306Z,1.50
2023-12-11T13:25:48.384Z,1.63
2023-12-11T13:29:12.383Z,1.10
2023-12-11T13:32:37.280Z,1.20
2023-12-11T13:36:02.787Z,1.53
2023-12-11T13:39:26.812Z,1.40
2023-12-11T13:42:52.631Z,1.23
2023-12-11T13:46:16.741Z,1.17
2023-12-11T13:49:41.122Z,1.40
2023-12-11T13:53:06.489Z,1.20
2023-12-11T13:56:30.052Z,1.40
2023-12-11T13:59:53.899Z,1.30
2023-12-11T14:03:21.834Z,1.43
2023-12-11T14:06:46.508Z,1.80
2023-12-11T14:10:12.238Z,1.03
2023-12-11T14:13:36.496Z,1.50
2023-12-11T14:17:00.363Z,1.20
2023-12-11T14:20:24.931Z,1.43
2023-12-11T14:23:49.507Z,2.50
2023-12-11T14:27:15.025Z,1.83
2023-12-11T14:30:39.517Z,1.40
2023-12-11T14:34:04.179Z,1.30
2023-12-11T14:37:28.755Z,1.83
2023-12-11T14:40:53.667Z,1.30
2023-12-11T14:44:19.719Z,1.30
2023-12-11T14:47:44.138Z,1.83
2023-12-11T14:51:08.573Z,1.40
2023-12-11T14:54:32.515Z,1.40
2023-12-11T14:57:56.751Z,1.57
2023-12-11T15:01:22.233Z,1.53
2023-12-11T15:04:46.510Z,1.90
2023-12-11T15:08:10.437Z,1.80
2023-12-11T15:11:36.364Z,1.93
2023-12-11T15:15:01.044Z,1.30
2023-12-11T15:18:26.299Z,1.33
2023-12-11T15:21:50.188Z,1.80
2023-12-11T15:25:14.236Z,1.63
2023-12-11T15:28:41.362Z,1.90
2023-12-11T15:32:06.017Z,1.50
2023-12-11T15:35:31.505Z,1.90
2023-12-11T15:38:55.582Z,1.20
2023-12-11T15:42:20.581Z,1.40
2023-12-11T15:45:44.976Z,1.57
2023-12-11T15:49:09.103Z,1.47
2023-12-11T15:52:34.858Z,1.80
2023-12-11T15:55:59.272Z,1.30
2023-12-11T15:59:23.719Z,1.70
2023-12-11T16:02:47.760Z,2.20
2023-12-11T16:06:11.602Z,2.13
2023-12-11T16:09:38.182Z,1.63
2023-12-11T16:13:02.266Z,2.10
2023-12-11T16:16:27.074Z,1.73
2023-12-11T16:19:51.470Z,1.80
2023-12-11T16:23:15.518Z,1.80
2023-12-11T16:26:40.948Z,1.50
2023-12-11T16:30:05.780Z,1.90
2023-12-11T16:33:31.908Z,3.07
2023-12-11T16:36:56.234Z,1.80
2023-12-11T16:40:20.812Z,1.50
2023-12-11T16:43:51.360Z,1.87
2023-12-11T16:47:15.597Z,1.77
2023-12-11T16:50:39.988Z,1.60
2023-12-11T16:54:04.942Z,1.37
2023-12-11T16:57:30.295Z,1.47
2023-12-11T17:00:55.841Z,1.50
2023-12-11T17:04:19.970Z,1.50
2023-12-11T17:07:43.924Z,1.60
2023-12-11T17:11:07.909Z,1.90
2023-12-11T17:14:31.888Z,1.90
2023-12-11T17:17:57.131Z,1.77
2023-12-11T17:21:28.341Z,2.07
2023-12-11T17:24:56.271Z,1.20
2023-12-11T17:28:22.370Z,1.50
2023-12-11T17:31:46.473Z,1.23
2023-12-11T17:35:12.323Z,1.57
2023-12-11T17:38:36.971Z,1.70
2023-12-11T17:42:00.860Z,1.17
2023-12-11T17:45:26.497Z,1.00
2023-12-11T17:48:50.983Z,1.30
2023-12-11T17:52:16.087Z,1.10
2023-12-11T17:55:40.148Z,0.90
2023-12-11T17:59:04.080Z,1.10
2023-12-11T18:02:29.997Z,0.93
2023-12-11T18:05:54.046Z,1.67
2023-12-11T18:09:19.967Z,1.70
2023-12-11T18:12:45.606Z,1.33
2023-12-11T18:16:10.655Z,1.33
2023-12-11T18:19:34.837Z,1.10
2023-12-11T18:22:59.095Z,1.40
2023-12-11T18:26:24.509Z,1.40
2023-12-11T18:29:49.049Z,1.20
2023-12-11T18:33:13.044Z,1.17
2023-12-11T18:36:40.791Z,1.30
2023-12-11T18:40:05.990Z,1.00
2023-12-11T18:43:31.881Z,1.10
2023-12-11T18:46:59.258Z,1.30
2023-12-11T18:50:24.365Z,0.93
2023-12-11T18:53:48.993Z,1.10
2023-12-11T18:57:15.723Z,1.00
2023-12-11T19:00:41.774Z,1.37
2023-12-11T19:04:07.192Z,1.20
2023-12-11T19:07:31.698Z,1.57
2023-12-11T19:10:56.298Z,1.03
2023-12-11T19:14:20.574Z,1.67
2023-12-11T19:17:45.585Z,1.60
2023-12-11T19:21:11.223Z,1.67
2023-12-11T19:24:36.085Z,1.70
2023-12-11T19:27:59.968Z,1.60
2023-12-11T19:31:25.046Z,1.87
2023-12-11T19:34:50.593Z,1.67
2023-12-11T19:38:14.680Z,1.40
2023-12-11T19:41:38.924Z,1.40
2023-12-11T19:45:02.872Z,1.73
2023-12-11T19:48:28.147Z,1.90
2023-12-11T19:51:53.657Z,2.10
2023-12-11T19:55:17.977Z,1.40
2023-12-11T19:58:41.829Z,1.50
2023-12-11T20:02:09.220Z,1.60
2023-12-11T20:05:33.556Z,1.70
2023-12-11T20:08:58.899Z,1.10
2023-12-11T20:12:23.236Z,1.30
2023-12-11T20:15:47.309Z,1.53
2023-12-11T20:19:12.055Z,1.20
2023-12-11T20:22:36.309Z,0.90
2023-12-11T20:26:02.616Z,1.33
2023-12-11T20:29:26.600Z,1.70
2023-12-11T20:32:51.700Z,1.07
2023-12-11T20:36:17.811Z,1.10
2023-12-11T20:39:41.916Z,1.40
2023-12-11T20:43:09.510Z,1.30
2023-12-11T20:46:33.887Z,1.10
2023-12-11T20:49:58.298Z,1.20
2023-12-11T20:53:22.170Z,1.13
2023-12-11T20:56:45.780Z,1.20
2023-12-11T21:00:12.984Z,1.30
2023-12-11T21:03:39.423Z,1.10
2023-12-11T21:07:03.103Z,1.20
2023-12-11T21:10:28.907Z,1.10
2023-12-11T21:13:53.279Z,1.00
2023-12-11T21:17:18.178Z,1.00
2023-12-11T21:20:42.666Z,0.90
2023-12-11T21:24:09.723Z,1.00
2023-12-11T21:27:34.099Z,1.00
2023-12-11T21:30:58.107Z,1.17
2023-12-11T21:34:23.376Z,1.50
2023-12-11T21:37:47.682Z,1.30
2023-12-11T21:41:14.802Z,1.00
2023-12-11T21:44:38.842Z,1.10
2023-12-11T21:48:02.892Z,1.10
2023-12-11T21:51:28.621Z,1.00
2023-12-11T21:54:52.531Z,0.93
2023-12-11T21:58:35.805Z,0.80
2023-12-11T22:03:10.507Z,1.20
2023-12-11T22:06:37.559Z,0.93
2023-12-11T22:10:01.733Z,1.23
2023-12-11T22:13:28.266Z,1.00
2023-12-11T22:16:52.587Z,1.20
2023-12-11T22:20:16.978Z,0.97
2023-12-11T22:23:42.454Z,1.80
2023-12-11T22:27:06.538Z,1.10
2023-12-11T22:30:30.721Z,1.10
2023-12-11T22:33:54.548Z,1.10
2023-12-11T22:37:18.618Z,1.00
2023-12-11T22:40:44.768Z,0.90
2023-12-11T22:44:08.543Z,1.13
2023-12-11T22:47:33.797Z,1.10
2023-12-11T22:50:57.969Z,1.13
2023-12-11T22:54:22.273Z,0.90
2023-12-11T22:57:47.292Z,1.00
2023-12-11T23:01:11.227Z,1.03
2023-12-11T23:04:35.636Z,1.13
2023-12-11T23:07:59.728Z,1.10
2023-12-11T23:11:23.337Z,1.00
2023-12-11T23:14:48.258Z,1.00
2023-12-11T23:18:12.045Z,1.23
2023-12-11T23:21:35.939Z,1.10
2023-12-11T23:24:59.548Z,0.90
2023-12-11T23:28:23.425Z,1.27
2023-12-11T23:31:48.591Z,1.10
2023-12-11T23:35:12.175Z,1.00
2023-12-11T23:38:36.440Z,0.90
2023-12-11T23:42:00.355Z,1.10
2023-12-11T23:45:24.057Z,1.00
2023-12-11T23:48:50.054Z,1.37
2023-12-11T23:52:14.223Z,1.03
2023-12-11T23:55:39.140Z,0.90
2023-12-11T23:59:06.109Z,1.20
